Mh1 Marujo — CSHC3 — position and weather

sailwx.info

Track history (hours):
 
Tides and Currents Weather Stations Pressure Air Temp Water Temp Dewpoint Dewpoint Depression Visibility Wind Speed Wind Dir Waves Ship Positions

Mh1 Marujo

Last reported at 2018-Jan-20 13:30 UTC. Time now 2018-Jan-20 13:33 UTC.
Position N 38°42' W 009°08'.

Type: Passenger vessel. MMSI: 263673939.

Date/timePositionNaut miles runAvg speedWind from/ knotsBaromVisibWave heightAir tempDewpointWater temp
2018-Jan-20 13:30N 38°42' W 009°08'4 7.2
2018-Jan-20 13:00N 38°42' W 009°13'0 0.8
2018-Jan-20 12:30N 38°42' W 009°12'3 4.9
2018-Jan-20 11:56N 38°42' W 009°09'1 2.2
2018-Jan-20 11:30N 38°42' W 009°10'2 4.0
2018-Jan-20 10:56N 38°42' W 009°13'2 3.7
2018-Jan-20 10:30N 38°42' W 009°11'0 0.1
2018-Jan-20 05:23N 38°42' W 009°11'0 0.0
2018-Jan-20 04:44N 38°42' W 009°11'0 0.0
2018-Jan-20 04:26N 38°42' W 009°11'0 0.0
2018-Jan-20 03:56N 38°42' W 009°11'0 0.0
2018-Jan-20 03:30N 38°42' W 009°11'0 0.0
2018-Jan-20 01:10N 38°42' W 009°11'0 0.0
2018-Jan-20 00:55N 38°42' W 009°11'0 0.0
2018-Jan-20 00:22N 38°42' W 009°11'0 0.0
2018-Jan-19 23:49N 38°42' W 009°11'0 0.0
2018-Jan-19 23:09N 38°42' W 009°11'0 0.0
2018-Jan-19 22:54N 38°42' W 009°11'0 0.0
2018-Jan-19 22:21N 38°42' W 009°11'0 0.0
2018-Jan-19 22:00N 38°42' W 009°11'0 0.0
2018-Jan-19 21:30N 38°42' W 009°11'0 0.0
2018-Jan-19 21:00N 38°42' W 009°11'0 0.0
2018-Jan-19 20:27N 38°42' W 009°11'0 0.0
2018-Jan-19 19:54N 38°42' W 009°11'0 0.0
2018-Jan-19 19:21N 38°42' W 009°11'0 0.0
2018-Jan-19 18:17N 38°42' W 009°11'1 1.4
2018-Jan-19 17:53N 38°42' W 009°10'1 1.4
2018-Jan-19 17:30N 38°42' W 009°09'3 5.1
2018-Jan-19 16:56N 38°42' W 009°13'0 1.0
2018-Jan-19 16:30N 38°42' W 009°12'3 4.9
2018-Jan-19 15:56N 38°42' W 009°09'0 0.6
2018-Jan-19 15:30N 38°42' W 009°09'3 5.0
2018-Jan-19 14:53N 38°42' W 009°13'2 5.5
2018-Jan-19 14:30N 38°42' W 009°10'1 2.2
2018-Jan-19 13:59N 38°42' W 009°09'0 0.1
2018-Jan-19 13:25N 38°42' W 009°09'3 8.0
2018-Jan-19 13:00N 38°42' W 009°13'1 1.8
2018-Jan-19 12:25N 38°42' W 009°11'2 4.7
2018-Jan-19 11:58N 38°42' W 009°09'1 2.4
2018-Jan-19 11:28N 38°42' W 009°10'2 1.9
2018-Jan-19 10:24N 38°42' W 009°13'1 3.1
2018-Jan-19 10:00N 38°41' W 009°12'1 2.9
2018-Jan-19 09:29N 38°42' W 009°11'0 0.0
2018-Jan-19 08:08N 38°42' W 009°11'0 0.0
2018-Jan-19 07:59N 38°42' W 009°11'0 0.0
2018-Jan-19 07:26N 38°42' W 009°11'0 0.0
2018-Jan-19 06:38N 38°42' W 009°11'0 0.0
2018-Jan-19 06:29N 38°42' W 009°11'0 0.0
2018-Jan-19 05:56N 38°42' W 009°11'0 0.0
2018-Jan-19 05:17N 38°42' W 009°11'0 0.0
2018-Jan-19 03:50N 38°42' W 009°11'0 0.0
2018-Jan-19 03:16N 38°42' W 009°11'0 0.0
2018-Jan-19 00:43N 38°42' W 009°11'0 0.0
2018-Jan-18 23:37N 38°42' W 009°11'0 0.0
2018-Jan-18 23:19N 38°42' W 009°11'0 0.0
2018-Jan-18 22:40N 38°42' W 009°11'0 0.0
2018-Jan-18 22:19N 38°42' W 009°11'0 0.0
2018-Jan-18 21:46N 38°42' W 009°11'0 0.0
2018-Jan-18 20:51N 38°42' W 009°11'0 0.0
2018-Jan-18 20:30N 38°42' W 009°11'0 0.0
2018-Jan-18 17:58N 38°42' W 009°11'0 0.5
2018-Jan-18 17:18N 38°42' W 009°11'1 3.7
2018-Jan-18 16:54N 38°42' W 009°13'0 1.1
2018-Jan-18 16:30N 38°42' W 009°12'3 4.5
2018-Jan-18 15:52N 38°42' W 009°09'1 3.5
2018-Jan-18 15:30N 38°42' W 009°10'2 3.7
2018-Jan-18 14:58N 38°42' W 009°13'3 3.2
2018-Jan-18 13:58N 38°42' W 009°09'1 1.6
2018-Jan-18 13:30N 38°42' W 009°10'2 3.8
2018-Jan-18 12:51N 38°42' W 009°13'1 1.9
2018-Jan-18 12:28N 38°42' W 009°12'3 3.1
2018-Jan-18 11:39N 38°42' W 009°09'1 4.1
2018-Jan-18 11:29N 38°42' W 009°10'3 4.9
2018-Jan-18 10:58N 38°42' W 009°13'1 3.1
2018-Jan-18 10:30N 38°42' W 009°11'0 0.4
2018-Jan-18 09:33N 38°42' W 009°11'0 0.0
2018-Jan-18 09:12N 38°42' W 009°11'0 0.0
2018-Jan-18 08:48N 38°42' W 009°11'0 0.0
2018-Jan-18 08:27N 38°42' W 009°11'0 0.0
2018-Jan-18 07:42N 38°42' W 009°11'0 0.0
2018-Jan-18 07:27N 38°42' W 009°11'0 0.0
2018-Jan-18 06:48N 38°42' W 009°11'0 0.0
2018-Jan-18 06:30N 38°42' W 009°11'0 0.0
2018-Jan-18 06:00N 38°42' W 009°11'0 0.0
2018-Jan-18 05:24N 38°42' W 009°11'0 0.0
2018-Jan-18 04:59N 38°42' W 009°11'0 0.0
2018-Jan-18 04:12N 38°42' W 009°11'0 0.0
2018-Jan-18 03:48N 38°42' W 009°11'0 0.0
2018-Jan-18 03:24N 38°42' W 009°11'0 0.0
2018-Jan-18 02:59N 38°42' W 009°11'0 0.0
2018-Jan-18 02:05N 38°42' W 009°11'0 0.0
2018-Jan-18 01:50N 38°42' W 009°11'0 0.0
2018-Jan-18 01:17N 38°42' W 009°11'0 0.0
2018-Jan-18 00:47N 38°42' W 009°11'0 0.0
2018-Jan-17 23:29N 38°42' W 009°11'  
2018-Jan-12 14:57N 38°42' W 009°13'3 4.8
2018-Jan-12 14:17N 38°42' W 009°09'0 0.0
2018-Jan-12 13:58N 38°42' W 009°09'1 2.5
2018-Jan-12 13:27N 38°42' W 009°10'2 2.5
2018-Jan-12 12:40N 38°42' W 009°13'2 5.0
2018-Jan-12 12:22N 38°42' W 009°11'2 3.0
2018-Jan-12 11:47N 38°42' W 009°09'1 2.6
2018-Jan-12 11:30N 38°42' W 009°10'3 4.4
2018-Jan-12 10:56N 38°42' W 009°13'1 2.5
2018-Jan-12 10:27N 38°41' W 009°12'0 0.4
2018-Jan-12 10:00N 38°41' W 009°11'1 0.5
2018-Jan-12 07:30N 38°42' W 009°11'0 0.0
2018-Jan-12 06:48N 38°42' W 009°11'0 0.0
2018-Jan-12 05:48N 38°42' W 009°11'0 0.0
2018-Jan-12 04:36N 38°42' W 009°11'0 0.0
2018-Jan-12 04:30N 38°42' W 009°11'0 0.0
2018-Jan-12 03:45N 38°42' W 009°11'0 0.0
2018-Jan-12 03:11N 38°42' W 009°11'0 0.0
2018-Jan-12 02:59N 38°42' W 009°11'0 0.0
2018-Jan-12 02:29N 38°42' W 009°11'0 0.0
2018-Jan-12 01:53N 38°42' W 009°11'0 0.0
2018-Jan-12 01:08N 38°42' W 009°11'0 0.0
2018-Jan-12 00:53N 38°42' W 009°11'0 0.0
2018-Jan-12 00:29N 38°42' W 009°11'0 0.0
2018-Jan-11 23:59N 38°42' W 009°11'0 0.0
2018-Jan-11 21:20N 38°42' W 009°11'0 0.0
2018-Jan-11 20:53N 38°42' W 009°11'0 0.0
2018-Jan-11 20:17N 38°42' W 009°11'0 0.0
2018-Jan-11 19:47N 38°42' W 009°11'0 0.0
2018-Jan-11 19:11N 38°42' W 009°11'0 0.0
2018-Jan-11 18:47N 38°42' W 009°11'0 0.0
2018-Jan-11 18:23N 38°42' W 009°11'0 0.0
2018-Jan-11 17:59N 38°42' W 009°11'0 0.0
2018-Jan-11 17:19N 38°42' W 009°11'2 2.9
2018-Jan-11 16:42N 38°42' W 009°13'1 4.3
2018-Jan-11 16:29N 38°42' W 009°12'2 3.8
2018-Jan-11 15:53N 38°42' W 009°09'2 3.8
2018-Jan-11 15:30N 38°42' W 009°11'2 3.2
2018-Jan-11 14:58N 38°42' W 009°13'3 5.8
2018-Jan-11 14:25N 38°42' W 009°09'0 0.0
2018-Jan-11 13:55N 38°42' W 009°09'1 2.5
2018-Jan-11 13:26N 38°42' W 009°10'2 3.1
2018-Jan-11 12:47N 38°42' W 009°13'1 5.2
2018-Jan-11 12:30N 38°42' W 009°11'2 2.8
2018-Jan-11 11:52N 38°42' W 009°09'1 2.7
2018-Jan-11 11:29N 38°42' W 009°10'2 4.6
2018-Jan-11 11:00N 38°42' W 009°13'2 3.3
2018-Jan-11 10:30N 38°42' W 009°11'0 0.2
2018-Jan-11 09:43N 38°42' W 009°11'0 0.0
2018-Jan-11 09:19N 38°42' W 009°11'0 0.0
2018-Jan-11 08:58N 38°42' W 009°11'0 0.0
2018-Jan-11 07:58N 38°42' W 009°11'0 0.0
2018-Jan-11 07:13N 38°42' W 009°11'0 0.0
2018-Jan-11 06:58N 38°42' W 009°11'0 0.0
2018-Jan-11 06:25N 38°42' W 009°11'0 0.0
2018-Jan-11 05:55N 38°42' W 009°11'0 0.0
2018-Jan-11 05:19N 38°42' W 009°11'0 0.0
2018-Jan-11 01:36N 38°42' W 009°11'0 0.0
2018-Jan-11 01:12N 38°42' W 009°11'0 0.0
2018-Jan-10 23:51N 38°42' W 009°11'0 0.0
2018-Jan-10 22:38N 38°42' W 009°11'0 0.0
2018-Jan-10 22:26N 38°42' W 009°11'0 0.0
2018-Jan-10 21:56N 38°42' W 009°11'0 0.0
2018-Jan-10 20:53N 38°42' W 009°11'0 0.0
2018-Jan-10 19:53N 38°42' W 009°11'0 0.0
2018-Jan-10 19:08N 38°42' W 009°11'0 0.0
2018-Jan-10 18:56N 38°42' W 009°11'0 0.0
2018-Jan-10 18:27N 38°42' W 009°11'0 0.0
2018-Jan-10 17:58N 38°42' W 009°11'0 0.0
2018-Jan-10 17:25N 38°42' W 009°11'2 4.2
2018-Jan-10 17:01N 38°42' W 009°13'2 2.8
2018-Jan-10 16:27N 38°42' W 009°11'2 2.5
2018-Jan-10 15:47N 38°42' W 009°09'1 3.8
2018-Jan-10 15:23N 38°42' W 009°11'2 4.8
2018-Jan-10 15:00N 38°42' W 009°13'1 1.6
2018-Jan-10 14:26N 38°42' W 009°12'  
Track history (hours):
 
Tides and Currents Weather Stations Pressure Air Temp Water Temp Dewpoint Dewpoint Depression Visibility Wind Speed Wind Dir Waves Ship Positions

Mh1 Marujo

Last reported at 2018-Jan-20 13:30 UTC. Time now 2018-Jan-20 13:33 UTC.
Position N 38°42' W 009°08'.

Type: Passenger vessel. MMSI: 263673939.

Date/timePositionNaut miles runAvg speedWind from/ knotsBaromVisibWave heightAir tempDewpointWater temp
2018-Jan-20 13:30N 38°42' W 009°08'4 7.2
2018-Jan-20 13:00N 38°42' W 009°13'0 0.8
2018-Jan-20 12:30N 38°42' W 009°12'3 4.9
2018-Jan-20 11:56N 38°42' W 009°09'1 2.2
2018-Jan-20 11:30N 38°42' W 009°10'2 4.0
2018-Jan-20 10:56N 38°42' W 009°13'2 3.7
2018-Jan-20 10:30N 38°42' W 009°11'0 0.1
2018-Jan-20 05:23N 38°42' W 009°11'0 0.0
2018-Jan-20 04:44N 38°42' W 009°11'0 0.0
2018-Jan-20 04:26N 38°42' W 009°11'0 0.0
2018-Jan-20 03:56N 38°42' W 009°11'0 0.0
2018-Jan-20 03:30N 38°42' W 009°11'0 0.0
2018-Jan-20 01:10N 38°42' W 009°11'0 0.0
2018-Jan-20 00:55N 38°42' W 009°11'0 0.0
2018-Jan-20 00:22N 38°42' W 009°11'0 0.0
2018-Jan-19 23:49N 38°42' W 009°11'0 0.0
2018-Jan-19 23:09N 38°42' W 009°11'0 0.0
2018-Jan-19 22:54N 38°42' W 009°11'0 0.0
2018-Jan-19 22:21N 38°42' W 009°11'0 0.0
2018-Jan-19 22:00N 38°42' W 009°11'0 0.0
2018-Jan-19 21:30N 38°42' W 009°11'0 0.0
2018-Jan-19 21:00N 38°42' W 009°11'0 0.0
2018-Jan-19 20:27N 38°42' W 009°11'0 0.0
2018-Jan-19 19:54N 38°42' W 009°11'0 0.0
2018-Jan-19 19:21N 38°42' W 009°11'0 0.0
2018-Jan-19 18:17N 38°42' W 009°11'1 1.4
2018-Jan-19 17:53N 38°42' W 009°10'1 1.4
2018-Jan-19 17:30N 38°42' W 009°09'3 5.1
2018-Jan-19 16:56N 38°42' W 009°13'0 1.0
2018-Jan-19 16:30N 38°42' W 009°12'3 4.9
2018-Jan-19 15:56N 38°42' W 009°09'0 0.6
2018-Jan-19 15:30N 38°42' W 009°09'3 5.0
2018-Jan-19 14:53N 38°42' W 009°13'2 5.5
2018-Jan-19 14:30N 38°42' W 009°10'1 2.2
2018-Jan-19 13:59N 38°42' W 009°09'0 0.1
2018-Jan-19 13:25N 38°42' W 009°09'3 8.0
2018-Jan-19 13:00N 38°42' W 009°13'1 1.8
2018-Jan-19 12:25N 38°42' W 009°11'2 4.7
2018-Jan-19 11:58N 38°42' W 009°09'1 2.4
2018-Jan-19 11:28N 38°42' W 009°10'2 1.9
2018-Jan-19 10:24N 38°42' W 009°13'1 3.1
2018-Jan-19 10:00N 38°41' W 009°12'1 2.9
2018-Jan-19 09:29N 38°42' W 009°11'0 0.0
2018-Jan-19 08:08N 38°42' W 009°11'0 0.0
2018-Jan-19 07:59N 38°42' W 009°11'0 0.0
2018-Jan-19 07:26N 38°42' W 009°11'0 0.0
2018-Jan-19 06:38N 38°42' W 009°11'0 0.0
2018-Jan-19 06:29N 38°42' W 009°11'0 0.0
2018-Jan-19 05:56N 38°42' W 009°11'0 0.0
2018-Jan-19 05:17N 38°42' W 009°11'0 0.0
2018-Jan-19 03:50N 38°42' W 009°11'0 0.0
2018-Jan-19 03:16N 38°42' W 009°11'0 0.0
2018-Jan-19 00:43N 38°42' W 009°11'0 0.0
2018-Jan-18 23:37N 38°42' W 009°11'0 0.0
2018-Jan-18 23:19N 38°42' W 009°11'0 0.0
2018-Jan-18 22:40N 38°42' W 009°11'0 0.0
2018-Jan-18 22:19N 38°42' W 009°11'0 0.0
2018-Jan-18 21:46N 38°42' W 009°11'0 0.0
2018-Jan-18 20:51N 38°42' W 009°11'0 0.0
2018-Jan-18 20:30N 38°42' W 009°11'0 0.0
2018-Jan-18 17:58N 38°42' W 009°11'0 0.5
2018-Jan-18 17:18N 38°42' W 009°11'1 3.7
2018-Jan-18 16:54N 38°42' W 009°13'0 1.1
2018-Jan-18 16:30N 38°42' W 009°12'3 4.5
2018-Jan-18 15:52N 38°42' W 009°09'1 3.5
2018-Jan-18 15:30N 38°42' W 009°10'2 3.7
2018-Jan-18 14:58N 38°42' W 009°13'3 3.2
2018-Jan-18 13:58N 38°42' W 009°09'1 1.6
2018-Jan-18 13:30N 38°42' W 009°10'2 3.8
2018-Jan-18 12:51N 38°42' W 009°13'1 1.9
2018-Jan-18 12:28N 38°42' W 009°12'3 3.1
2018-Jan-18 11:39N 38°42' W 009°09'1 4.1
2018-Jan-18 11:29N 38°42' W 009°10'3 4.9
2018-Jan-18 10:58N 38°42' W 009°13'1 3.1
2018-Jan-18 10:30N 38°42' W 009°11'0 0.4
2018-Jan-18 09:33N 38°42' W 009°11'0 0.0
2018-Jan-18 09:12N 38°42' W 009°11'0 0.0
2018-Jan-18 08:48N 38°42' W 009°11'0 0.0
2018-Jan-18 08:27N 38°42' W 009°11'0 0.0
2018-Jan-18 07:42N 38°42' W 009°11'0 0.0
2018-Jan-18 07:27N 38°42' W 009°11'0 0.0
2018-Jan-18 06:48N 38°42' W 009°11'0 0.0
2018-Jan-18 06:30N 38°42' W 009°11'0 0.0
2018-Jan-18 06:00N 38°42' W 009°11'0 0.0
2018-Jan-18 05:24N 38°42' W 009°11'0 0.0
2018-Jan-18 04:59N 38°42' W 009°11'0 0.0
2018-Jan-18 04:12N 38°42' W 009°11'0 0.0
2018-Jan-18 03:48N 38°42' W 009°11'0 0.0
2018-Jan-18 03:24N 38°42' W 009°11'0 0.0
2018-Jan-18 02:59N 38°42' W 009°11'0 0.0
2018-Jan-18 02:05N 38°42' W 009°11'0 0.0
2018-Jan-18 01:50N 38°42' W 009°11'0 0.0
2018-Jan-18 01:17N 38°42' W 009°11'0 0.0
2018-Jan-18 00:47N 38°42' W 009°11'0 0.0
2018-Jan-17 23:29N 38°42' W 009°11'  
2018-Jan-12 14:57N 38°42' W 009°13'3 4.8
2018-Jan-12 14:17N 38°42' W 009°09'0 0.0
2018-Jan-12 13:58N 38°42' W 009°09'1 2.5
2018-Jan-12 13:27N 38°42' W 009°10'2 2.5
2018-Jan-12 12:40N 38°42' W 009°13'2 5.0
2018-Jan-12 12:22N 38°42' W 009°11'2 3.0
2018-Jan-12 11:47N 38°42' W 009°09'1 2.6
2018-Jan-12 11:30N 38°42' W 009°10'3 4.4
2018-Jan-12 10:56N 38°42' W 009°13'1 2.5
2018-Jan-12 10:27N 38°41' W 009°12'0 0.4
2018-Jan-12 10:00N 38°41' W 009°11'1 0.5
2018-Jan-12 07:30N 38°42' W 009°11'0 0.0
2018-Jan-12 06:48N 38°42' W 009°11'0 0.0
2018-Jan-12 05:48N 38°42' W 009°11'0 0.0
2018-Jan-12 04:36N 38°42' W 009°11'0 0.0
2018-Jan-12 04:30N 38°42' W 009°11'0 0.0
2018-Jan-12 03:45N 38°42' W 009°11'0 0.0
2018-Jan-12 03:11N 38°42' W 009°11'0 0.0
2018-Jan-12 02:59N 38°42' W 009°11'0 0.0
2018-Jan-12 02:29N 38°42' W 009°11'0 0.0
2018-Jan-12 01:53N 38°42' W 009°11'0 0.0
2018-Jan-12 01:08N 38°42' W 009°11'0 0.0
2018-Jan-12 00:53N 38°42' W 009°11'0 0.0
2018-Jan-12 00:29N 38°42' W 009°11'0 0.0
2018-Jan-11 23:59N 38°42' W 009°11'0 0.0
2018-Jan-11 21:20N 38°42' W 009°11'0 0.0
2018-Jan-11 20:53N 38°42' W 009°11'0 0.0
2018-Jan-11 20:17N 38°42' W 009°11'0 0.0
2018-Jan-11 19:47N 38°42' W 009°11'0 0.0
2018-Jan-11 19:11N 38°42' W 009°11'0 0.0
2018-Jan-11 18:47N 38°42' W 009°11'0 0.0
2018-Jan-11 18:23N 38°42' W 009°11'0 0.0
2018-Jan-11 17:59N 38°42' W 009°11'0 0.0
2018-Jan-11 17:19N 38°42' W 009°11'2 2.9
2018-Jan-11 16:42N 38°42' W 009°13'1 4.3
2018-Jan-11 16:29N 38°42' W 009°12'2 3.8
2018-Jan-11 15:53N 38°42' W 009°09'2 3.8
2018-Jan-11 15:30N 38°42' W 009°11'2 3.2
2018-Jan-11 14:58N 38°42' W 009°13'3 5.8
2018-Jan-11 14:25N 38°42' W 009°09'0 0.0
2018-Jan-11 13:55N 38°42' W 009°09'1 2.5
2018-Jan-11 13:26N 38°42' W 009°10'2 3.1
2018-Jan-11 12:47N 38°42' W 009°13'1 5.2
2018-Jan-11 12:30N 38°42' W 009°11'2 2.8
2018-Jan-11 11:52N 38°42' W 009°09'1 2.7
2018-Jan-11 11:29N 38°42' W 009°10'2 4.6
2018-Jan-11 11:00N 38°42' W 009°13'2 3.3
2018-Jan-11 10:30N 38°42' W 009°11'0 0.2
2018-Jan-11 09:43N 38°42' W 009°11'0 0.0
2018-Jan-11 09:19N 38°42' W 009°11'0 0.0
2018-Jan-11 08:58N 38°42' W 009°11'0 0.0
2018-Jan-11 07:58N 38°42' W 009°11'0 0.0
2018-Jan-11 07:13N 38°42' W 009°11'0 0.0
2018-Jan-11 06:58N 38°42' W 009°11'0 0.0
2018-Jan-11 06:25N 38°42' W 009°11'0 0.0
2018-Jan-11 05:55N 38°42' W 009°11'0 0.0
2018-Jan-11 05:19N 38°42' W 009°11'0 0.0
2018-Jan-11 01:36N 38°42' W 009°11'0 0.0
2018-Jan-11 01:12N 38°42' W 009°11'0 0.0
2018-Jan-10 23:51N 38°42' W 009°11'0 0.0
2018-Jan-10 22:38N 38°42' W 009°11'0 0.0
2018-Jan-10 22:26N 38°42' W 009°11'0 0.0
2018-Jan-10 21:56N 38°42' W 009°11'0 0.0
2018-Jan-10 20:53N 38°42' W 009°11'0 0.0
2018-Jan-10 19:53N 38°42' W 009°11'0 0.0
2018-Jan-10 19:08N 38°42' W 009°11'0 0.0
2018-Jan-10 18:56N 38°42' W 009°11'0 0.0
2018-Jan-10 18:27N 38°42' W 009°11'0 0.0
2018-Jan-10 17:58N 38°42' W 009°11'0 0.0
2018-Jan-10 17:25N 38°42' W 009°11'2 4.2
2018-Jan-10 17:01N 38°42' W 009°13'2 2.8
2018-Jan-10 16:27N 38°42' W 009°11'2 2.5
2018-Jan-10 15:47N 38°42' W 009°09'1 3.8
2018-Jan-10 15:23N 38°42' W 009°11'2 4.8
2018-Jan-10 15:00N 38°42' W 009°13'1 1.6
2018-Jan-10 14:26N 38°42' W 009°12'  

Dump ship's entire track history